Time;durP1;ratioP1;P1;durP2;ratioP2;P2;SDS_P1;SDS_P2;PMS_P1;PMS_P2;Temp;Humidity;BMP_temperature;BMP_pressure;BME280_temperature;BME280_humidity;BME280_pressure;Samples;Min_cycle;Max_cycle;Signal;HPM_P1;HPM_P2
2023/08/10 00:01:33;;;;;;;3.47;2.73;;;14.80;99.90;;;;;;5070444;28;20277;-65
2023/08/10 00:03:59;;;;;;;2.53;2.33;;;14.70;99.90;;;;;;5070635;28;20429;-65
2023/08/10 00:06:25;;;;;;;3.20;2.90;;;14.60;99.90;;;;;;5070766;28;20187;-65
2023/08/10 00:08:50;;;;;;;2.97;2.73;;;14.50;99.90;;;;;;5070577;28;20289;-65
2023/08/10 00:11:16;;;;;;;3.10;2.90;;;14.40;99.90;;;;;;5070226;28;20211;-65
2023/08/10 00:13:41;;;;;;;2.70;2.50;;;14.30;99.90;;;;;;5070308;28;20179;-65
2023/08/10 00:16:07;;;;;;;3.20;2.37;;;14.30;99.90;;;;;;5070215;28;20186;-65
2023/08/10 00:18:33;;;;;;;3.60;3.00;;;14.40;99.90;;;;;;5070374;28;20581;-65
2023/08/10 00:20:59;;;;;;;4.10;2.53;;;14.30;99.90;;;;;;5070388;28;20214;-65
2023/08/10 00:23:25;;;;;;;4.47;3.10;;;14.40;99.90;;;;;;5051881;28;20191;-66
2023/08/10 00:25:51;;;;;;;4.93;2.97;;;14.30;99.90;;;;;;5069714;28;20420;-66
2023/08/10 00:28:16;;;;;;;5.17;2.57;;;14.40;99.90;;;;;;5069945;28;20176;-65
2023/08/10 00:30:42;;;;;;;4.50;2.43;;;14.30;99.90;;;;;;5069848;28;20207;-65
2023/08/10 00:33:07;;;;;;;2.50;2.03;;;14.20;99.90;;;;;;5070155;28;20836;-66
2023/08/10 00:35:37;;;;;;;3.50;2.00;;;14.20;99.90;;;;;;5070274;28;20194;-66
2023/08/10 00:38:03;;;;;;;2.97;2.43;;;14.20;99.90;;;;;;5070047;28;20225;-66
2023/08/10 00:40:29;;;;;;;2.40;2.13;;;14.10;99.90;;;;;;5069987;28;20421;-65
2023/08/10 00:42:56;;;;;;;3.40;2.43;;;14.10;99.90;;;;;;5069833;28;20205;-65
2023/08/10 00:45:22;;;;;;;3.50;2.80;;;14.20;99.90;;;;;;5069804;28;20183;-65
2023/08/10 00:47:47;;;;;;;2.87;2.33;;;14.20;99.90;;;;;;5069976;28;21016;-65
2023/08/10 00:50:13;;;;;;;5.50;3.00;;;14.30;99.90;;;;;;5070044;28;20255;-65
2023/08/10 00:52:39;;;;;;;1.93;1.83;;;14.20;99.90;;;;;;5069524;28;20290;-65
2023/08/10 00:55:05;;;;;;;2.80;2.60;;;14.20;99.90;;;;;;5069673;28;20183;-65
2023/08/10 00:57:31;;;;;;;2.80;2.50;;;14.20;99.90;;;;;;5069790;28;20192;-65
2023/08/10 00:59:56;;;;;;;3.30;2.50;;;14.20;99.90;;;;;;5069580;28;20418;-65
2023/08/10 01:02:22;;;;;;;3.30;2.77;;;14.00;99.90;;;;;;5069968;28;20215;-65
2023/08/10 01:04:48;;;;;;;3.03;2.57;;;14.00;99.90;;;;;;5052172;28;20611;-65
2023/08/10 01:07:37;;;;;;;4.80;2.83;;;13.90;99.90;;;;;;5070149;28;20200;-65
2023/08/10 01:10:38;;;;;;;2.73;2.53;;;14.00;99.90;;;;;;5070198;28;20180;-65
2023/08/10 01:13:22;;;;;;;2.80;2.60;;;14.10;99.90;;;;;;5070028;28;20422;-65
2023/08/10 01:16:02;;;;;;;2.63;2.43;;;14.10;99.90;;;;;;5069630;28;20501;-65
2023/08/10 01:18:28;;;;;;;4.33;2.40;;;14.20;99.90;;;;;;5069685;28;20401;-65
2023/08/10 01:20:55;;;;;;;2.50;2.30;;;14.20;99.90;;;;;;5069218;28;20421;-65
2023/08/10 01:23:34;;;;;;;2.33;2.13;;;14.30;99.90;;;;;;5069108;28;20206;-65
2023/08/10 01:26:01;;;;;;;3.27;2.00;;;14.40;99.90;;;;;;5069068;28;20413;-66
2023/08/10 01:28:27;;;;;;;3.40;2.50;;;14.40;99.90;;;;;;5069177;28;20968;-65
2023/08/10 01:30:53;;;;;;;2.13;1.93;;;14.30;99.90;;;;;;5050886;28;20542;-65
2023/08/10 01:33:19;;;;;;;4.80;2.80;;;14.30;99.90;;;;;;5069075;28;20879;-65
2023/08/10 01:35:45;;;;;;;7.70;2.10;;;14.30;99.90;;;;;;5068827;28;20418;-65
2023/08/10 01:38:11;;;;;;;2.93;2.67;;;14.30;99.90;;;;;;5068897;28;20417;-65
2023/08/10 01:40:37;;;;;;;4.33;3.10;;;14.30;99.90;;;;;;5068835;28;20183;-65
2023/08/10 01:43:04;;;;;;;3.10;2.30;;;14.30;99.90;;;;;;5068802;28;20411;-65
2023/08/10 01:45:30;;;;;;;2.53;2.10;;;14.10;99.90;;;;;;5068781;28;20498;-65
2023/08/10 01:48:11;;;;;;;4.73;3.07;;;14.00;99.90;;;;;;5050631;28;20432;-65
2023/08/10 01:50:43;;;;;;;3.13;2.73;;;13.90;99.90;;;;;;5068658;28;20457;-65
2023/08/10 01:53:15;;;;;;;5.33;2.50;;;13.90;99.90;;;;;;5068700;28;20457;-65
2023/08/10 01:55:41;;;;;;;2.83;2.47;;;13.90;99.90;;;;;;5068717;28;20410;-65
2023/08/10 01:58:06;;;;;;;3.00;2.67;;;14.00;99.90;;;;;;5050760;28;20424;-65
2023/08/10 02:00:37;;;;;;;3.13;2.30;;;14.00;99.90;;;;;;5068506;28;20508;-65
2023/08/10 02:03:03;;;;;;;2.57;2.37;;;13.90;99.90;;;;;;5068552;28;20207;-65
2023/08/10 02:05:29;;;;;;;2.87;2.67;;;13.90;99.90;;;;;;5068490;28;20797;-65
2023/08/10 02:07:55;;;;;;;3.57;2.30;;;13.70;99.90;;;;;;5068514;28;20412;-65
2023/08/10 02:10:20;;;;;;;2.60;2.40;;;13.80;99.90;;;;;;5068427;28;20232;-65
2023/08/10 02:12:46;;;;;;;2.07;1.93;;;13.80;99.90;;;;;;5068419;28;20198;-65
2023/08/10 02:15:12;;;;;;;3.47;2.47;;;13.80;99.90;;;;;;5068375;28;20186;-65
2023/08/10 02:17:38;;;;;;;3.37;2.80;;;13.80;99.90;;;;;;5050310;28;20179;-65
2023/08/10 02:20:12;;;;;;;5.43;2.80;;;13.80;99.90;;;;;;5068606;28;20528;-65
2023/08/10 02:22:42;;;;;;;4.00;2.50;;;13.80;99.90;;;;;;5068423;28;20433;-65
2023/08/10 02:25:09;;;;;;;5.03;2.30;;;13.80;99.90;;;;;;5068419;28;20425;-65
2023/08/10 02:27:35;;;;;;;3.40;2.57;;;13.70;99.90;;;;;;5068353;28;20504;-65
2023/08/10 02:30:01;;;;;;;4.10;2.40;;;13.70;99.90;;;;;;5068114;28;20868;-65
2023/08/10 02:32:29;;;;;;;5.17;2.73;;;13.90;99.90;;;;;;5050359;28;20508;-64
2023/08/10 02:34:54;;;;;;;6.63;2.80;;;13.90;99.90;;;;;;5050839;28;20187;-65
2023/08/10 02:37:20;;;;;;;2.30;2.10;;;14.00;99.90;;;;;;5050418;28;20417;-64
2023/08/10 02:39:46;;;;;;;2.60;2.40;;;14.00;99.90;;;;;;5068874;28;20194;-65
2023/08/10 02:42:11;;;;;;;2.30;2.07;;;14.00;99.90;;;;;;5050943;28;20234;-65
2023/08/10 02:44:37;;;;;;;6.70;2.30;;;14.00;99.90;;;;;;5068842;28;20650;-64
2023/08/10 02:47:03;;;;;;;3.60;2.03;;;14.00;99.90;;;;;;5069627;28;20195;-64
2023/08/10 02:49:28;;;;;;;3.30;2.60;;;14.10;99.90;;;;;;5072968;28;20429;-64
2023/08/10 02:51:54;;;;;;;6.10;2.50;;;14.10;99.90;;;;;;5072649;28;20243;-65
2023/08/10 02:54:20;;;;;;;3.20;2.70;;;14.20;99.90;;;;;;5072791;28;20189;-65
2023/08/10 02:56:45;;;;;;;2.37;2.17;;;14.20;99.90;;;;;;5073004;28;20179;-64
2023/08/10 02:59:11;;;;;;;2.67;1.90;;;14.30;99.90;;;;;;5072593;28;20551;-65
2023/08/10 03:01:36;;;;;;;9.30;2.60;;;14.30;99.90;;;;;;5072294;28;20203;-64
2023/08/10 03:04:02;;;;;;;3.73;2.40;;;14.30;99.90;;;;;;5071759;28;20195;-65
2023/08/10 03:06:28;;;;;;;6.70;2.40;;;14.30;99.90;;;;;;5072432;28;20190;-65
2023/08/10 03:08:54;;;;;;;3.70;2.27;;;14.30;99.90;;;;;;5071822;28;20658;-65
2023/08/10 03:11:25;;;;;;;3.23;2.07;;;14.20;99.90;;;;;;5071640;28;20458;-65
2023/08/10 03:13:51;;;;;;;2.63;2.23;;;14.20;99.90;;;;;;5071805;28;20884;-65
2023/08/10 03:16:17;;;;;;;3.23;2.30;;;14.30;99.90;;;;;;5071177;28;20513;-65
2023/08/10 03:18:43;;;;;;;3.83;2.47;;;14.20;99.90;;;;;;5053757;28;20187;-65
2023/08/10 03:21:08;;;;;;;3.10;2.80;;;14.20;99.90;;;;;;5071663;28;20442;-66
2023/08/10 03:23:34;;;;;;;3.30;3.00;;;14.00;99.90;;;;;;5053452;28;20245;-65
2023/08/10 03:25:59;;;;;;;5.43;3.03;;;14.00;99.90;;;;;;5071434;28;20222;-66
2023/08/10 03:28:25;;;;;;;6.60;2.87;;;13.90;99.90;;;;;;5071374;28;20175;-65
2023/08/10 03:30:51;;;;;;;3.03;2.83;;;13.80;99.90;;;;;;5071055;28;20211;-66
2023/08/10 03:33:16;;;;;;;4.00;3.60;;;13.80;99.90;;;;;;5071137;28;20601;-66
2023/08/10 03:35:42;;;;;;;6.13;3.47;;;13.60;99.90;;;;;;5071228;28;20262;-66
2023/08/10 03:38:08;;;;;;;6.53;4.07;;;13.60;99.90;;;;;;5071357;28;20183;-65
2023/08/10 03:40:34;;;;;;;4.20;3.80;;;13.50;99.90;;;;;;5052784;28;20187;-66
2023/08/10 03:43:00;;;;;;;4.23;3.83;;;13.50;99.90;;;;;;5070816;28;20434;-66
2023/08/10 03:45:25;;;;;;;7.43;4.20;;;13.40;99.90;;;;;;5070885;28;20185;-66
2023/08/10 03:47:51;;;;;;;5.50;4.03;;;13.40;99.90;;;;;;5070923;28;20187;-65
2023/08/10 03:50:16;;;;;;;4.70;3.70;;;13.30;99.90;;;;;;5070897;28;20715;-65
2023/08/10 03:52:42;;;;;;;4.83;4.00;;;13.30;99.90;;;;;;5052551;28;20222;-65
2023/08/10 03:55:08;;;;;;;4.10;3.70;;;13.20;99.90;;;;;;5052760;28;20189;-66
2023/08/10 03:57:33;;;;;;;4.77;3.73;;;13.10;99.90;;;;;;5070779;28;20574;-65
2023/08/10 03:59:59;;;;;;;7.23;3.83;;;13.10;99.90;;;;;;5051182;28;20424;-65
2023/08/10 04:02:25;;;;;;;6.50;4.40;;;13.20;99.90;;;;;;5070512;28;20226;-65
2023/08/10 04:04:51;;;;;;;4.47;4.00;;;13.10;99.90;;;;;;5069656;28;20916;-65
2023/08/10 04:07:16;;;;;;;6.90;4.63;;;13.10;99.90;;;;;;5069224;28;20609;-65
2023/08/10 04:09:46;;;;;;;5.00;4.50;;;13.00;99.90;;;;;;5069339;28;20235;-65
2023/08/10 04:12:12;;;;;;;4.87;4.23;;;13.00;99.90;;;;;;5068816;28;20213;-65
2023/08/10 04:14:38;;;;;;;6.00;4.60;;;13.10;99.90;;;;;;5068110;28;20478;-65
2023/08/10 04:17:03;;;;;;;5.63;4.37;;;13.10;99.90;;;;;;5069147;28;20582;-65
2023/08/10 04:19:30;;;;;;;4.90;4.23;;;13.10;99.90;;;;;;5068914;28;20183;-65
2023/08/10 04:21:56;;;;;;;9.03;3.87;;;13.10;99.90;;;;;;5051030;28;20256;-65
2023/08/10 04:24:22;;;;;;;5.33;4.37;;;13.10;99.90;;;;;;5050852;28;20421;-65
2023/08/10 04:26:48;;;;;;;4.43;3.80;;;13.00;99.90;;;;;;5068896;28;20409;-65
2023/08/10 04:29:13;;;;;;;6.73;4.20;;;13.00;99.90;;;;;;5068883;28;20190;-65
2023/08/10 04:31:40;;;;;;;3.70;3.40;;;13.00;99.90;;;;;;5068533;28;20219;-66
2023/08/10 04:34:06;;;;;;;4.37;3.97;;;12.90;99.90;;;;;;5068612;28;20413;-65
2023/08/10 04:36:33;;;;;;;5.03;4.53;;;12.90;99.90;;;;;;5050265;28;20532;-65
2023/08/10 04:38:59;;;;;;;4.93;4.10;;;13.00;99.90;;;;;;5068528;28;20420;-65
2023/08/10 04:41:25;;;;;;;4.70;4.30;;;13.00;99.90;;;;;;5068739;28;20441;-65
2023/08/10 04:43:51;;;;;;;6.73;4.50;;;13.00;99.90;;;;;;5068523;28;20935;-65
2023/08/10 04:46:16;;;;;;;5.27;4.77;;;13.00;99.90;;;;;;5050482;28;20211;-64
2023/08/10 04:48:42;;;;;;;5.50;4.50;;;13.00;99.90;;;;;;5068415;28;20194;-64
2023/08/10 04:51:07;;;;;;;11.03;5.10;;;13.10;99.90;;;;;;5068365;28;20218;-64
2023/08/10 04:53:33;;;;;;;6.00;4.77;;;13.10;99.90;;;;;;5068398;28;20183;-64
2023/08/10 04:55:59;;;;;;;5.47;4.97;;;13.00;99.90;;;;;;5050306;28;20183;-64
2023/08/10 04:58:25;;;;;;;5.83;5.17;;;13.00;99.90;;;;;;5068066;28;20580;-64
2023/08/10 05:00:54;;;;;;;5.00;4.40;;;13.00;99.90;;;;;;5068038;28;20593;-66
2023/08/10 05:03:20;;;;;;;5.73;4.60;;;13.10;99.90;;;;;;5068104;28;20592;-66
2023/08/10 05:05:46;;;;;;;5.40;4.43;;;13.10;99.90;;;;;;5068063;28;20517;-65
2023/08/10 05:08:12;;;;;;;5.47;4.77;;;13.10;99.90;;;;;;5068096;28;20179;-65
2023/08/10 05:10:37;;;;;;;5.60;4.10;;;13.00;99.90;;;;;;5048979;28;20431;-65
2023/08/10 05:13:04;;;;;;;8.50;3.70;;;13.00;99.90;;;;;;5067895;28;20186;-65
2023/08/10 05:15:30;;;;;;;4.10;3.70;;;12.90;99.90;;;;;;5067918;28;20694;-66
2023/08/10 05:17:55;;;;;;;5.27;4.20;;;12.90;99.90;;;;;;5067937;28;20503;-65
2023/08/10 05:20:21;;;;;;;3.93;3.53;;;12.90;99.90;;;;;;5067848;28;21013;-66
2023/08/10 05:22:49;;;;;;;4.63;4.23;;;13.00;99.90;;;;;;5067677;28;20293;-65
2023/08/10 05:25:15;;;;;;;4.83;3.70;;;13.10;99.90;;;;;;5067779;28;20451;-65
2023/08/10 05:27:41;;;;;;;4.50;4.10;;;13.20;99.90;;;;;;5067648;28;20420;-66
2023/08/10 05:30:11;;;;;;;4.07;3.67;;;13.30;99.90;;;;;;5067407;28;20243;-65
2023/08/10 05:32:39;;;;;;;6.20;3.97;;;13.40;99.90;;;;;;5067449;28;20461;-64
2023/08/10 05:35:06;;;;;;;5.03;3.50;;;13.40;99.90;;;;;;5067546;28;20417;-64
2023/08/10 05:37:33;;;;;;;3.83;3.43;;;13.50;99.90;;;;;;5067438;28;20424;-64
2023/08/10 05:39:59;;;;;;;4.43;3.93;;;13.70;99.90;;;;;;5067642;28;20969;-64
2023/08/10 05:42:25;;;;;;;5.07;3.63;;;13.70;99.90;;;;;;5067412;28;20535;-64
2023/08/10 05:44:50;;;;;;;3.63;3.30;;;14.00;99.90;;;;;;5067848;28;20517;-65
2023/08/10 05:47:16;;;;;;;4.30;3.17;;;14.10;99.90;;;;;;5067360;28;20183;-65
2023/08/10 05:49:42;;;;;;;4.33;3.60;;;14.20;99.90;;;;;;5067822;28;20536;-65
2023/08/10 05:52:08;;;;;;;8.90;4.13;;;14.30;99.90;;;;;;5067092;28;20261;-64
2023/08/10 05:54:34;;;;;;;4.73;4.00;;;14.30;99.90;;;;;;5067286;28;20183;-64
2023/08/10 05:57:00;;;;;;;4.60;3.50;;;14.50;99.90;;;;;;5067395;28;20835;-65
2023/08/10 05:59:26;;;;;;;4.40;4.00;;;14.60;99.90;;;;;;5067379;28;20444;-65
2023/08/10 06:01:52;;;;;;;6.60;4.03;;;14.70;99.90;;;;;;5067189;28;20244;-65
2023/08/10 06:04:18;;;;;;;4.23;3.80;;;14.80;99.90;;;;;;5066854;28;20422;-65
2023/08/10 06:06:44;;;;;;;3.93;3.53;;;14.90;99.90;;;;;;5066939;28;20420;-65
2023/08/10 06:09:13;;;;;;;3.47;3.10;;;15.00;99.90;;;;;;5067615;28;20293;-65
2023/08/10 06:11:39;;;;;;;4.73;3.00;;;15.10;99.90;;;;;;5067121;28;20505;-65
2023/08/10 06:14:05;;;;;;;7.17;3.27;;;15.30;99.90;;;;;;5067035;28;20427;-65
2023/08/10 06:16:30;;;;;;;5.93;3.33;;;15.40;99.90;;;;;;5067312;28;20428;-65
2023/08/10 06:18:56;;;;;;;4.00;3.70;;;15.60;99.90;;;;;;5067327;28;20176;-65
2023/08/10 06:21:22;;;;;;;4.30;2.90;;;15.80;99.90;;;;;;5067377;28;20630;-65
2023/08/10 06:23:48;;;;;;;4.07;3.50;;;16.00;99.90;;;;;;5071087;28;20269;-65
2023/08/10 06:26:13;;;;;;;3.97;3.00;;;16.00;99.90;;;;;;5071795;28;20454;-65
2023/08/10 06:28:39;;;;;;;5.03;3.30;;;16.10;99.90;;;;;;5071703;28;20666;-66
2023/08/10 06:31:09;;;;;;;4.90;3.30;;;16.10;99.90;;;;;;5071546;28;20796;-65
2023/08/10 06:33:38;;;;;;;5.70;3.33;;;16.20;99.90;;;;;;5071752;28;20173;-66
2023/08/10 06:36:06;;;;;;;4.33;3.50;;;16.20;99.90;;;;;;5054691;28;20921;-65
2023/08/10 06:38:35;;;;;;;3.83;3.37;;;16.20;99.90;;;;;;5073426;28;20423;-65
2023/08/10 06:41:01;;;;;;;4.07;2.97;;;16.20;99.90;;;;;;5072905;28;20450;-65
2023/08/10 06:43:27;;;;;;;4.77;3.60;;;16.20;99.90;;;;;;5072702;28;20455;-65
2023/08/10 06:45:53;;;;;;;3.30;2.90;;;16.20;99.90;;;;;;5072546;28;20550;-66
2023/08/10 06:48:18;;;;;;;4.20;3.73;;;16.30;99.90;;;;;;5072434;28;20422;-66
2023/08/10 06:50:44;;;;;;;4.33;3.93;;;16.20;99.90;;;;;;5072066;28;20596;-66
2023/08/10 06:53:11;;;;;;;5.00;3.43;;;16.30;99.90;;;;;;5071954;28;20187;-65
2023/08/10 06:55:38;;;;;;;6.03;3.83;;;16.20;99.90;;;;;;5053641;28;20196;-66
2023/08/10 06:58:04;;;;;;;3.73;3.40;;;16.20;99.90;;;;;;5071914;28;20478;-66
2023/08/10 07:00:31;;;;;;;3.80;3.37;;;16.20;99.90;;;;;;5071824;28;20410;-66
2023/08/10 07:02:56;;;;;;;4.00;3.70;;;16.20;99.90;;;;;;5071745;28;20437;-66
2023/08/10 07:05:26;;;;;;;3.77;3.47;;;16.30;99.90;;;;;;5071787;28;20423;-66
2023/08/10 07:07:52;;;;;;;3.07;2.57;;;16.30;99.90;;;;;;5071700;28;20483;-65
2023/08/10 07:10:17;;;;;;;3.47;3.17;;;16.40;99.90;;;;;;5071645;28;21289;-66
2023/08/10 07:12:43;;;;;;;3.20;2.90;;;16.50;99.90;;;;;;5071468;28;20459;-66
2023/08/10 07:15:10;;;;;;;3.30;3.00;;;16.60;99.90;;;;;;5071692;28;20180;-65
2023/08/10 07:17:35;;;;;;;3.00;2.77;;;16.60;99.90;;;;;;5071407;28;20425;-66
2023/08/10 07:20:06;;;;;;;2.80;2.60;;;16.60;99.90;;;;;;5071624;28;20419;-66
2023/08/10 07:22:32;;;;;;;3.50;3.20;;;16.70;99.90;;;;;;5071373;28;20212;-66
2023/08/10 07:25:05;;;;;;;3.33;3.03;;;16.80;99.90;;;;;;5053492;28;20439;-66
2023/08/10 07:27:32;;;;;;;2.70;2.50;;;16.90;99.90;;;;;;5071520;28;20423;-65
2023/08/10 07:29:58;;;;;;;7.50;4.27;;;17.00;99.90;;;;;;5071307;28;20455;-66
2023/08/10 07:32:23;;;;;;;4.00;3.40;;;17.00;99.90;;;;;;5071098;28;21347;-66
2023/08/10 07:34:49;;;;;;;2.93;2.63;;;17.00;99.90;;;;;;5071030;28;20677;-66
2023/08/10 07:37:15;;;;;;;4.50;3.23;;;17.10;99.90;;;;;;5071192;28;20562;-65
2023/08/10 07:39:40;;;;;;;4.73;3.37;;;17.10;99.90;;;;;;5071476;28;20331;-65
2023/08/10 07:42:06;;;;;;;2.90;2.70;;;17.20;99.90;;;;;;5071278;28;20205;-65
2023/08/10 07:44:32;;;;;;;4.43;2.33;;;17.30;99.90;;;;;;5071436;28;20677;-66
2023/08/10 07:46:58;;;;;;;3.37;2.40;;;17.40;99.90;;;;;;5071493;28;20494;-65
2023/08/10 07:49:24;;;;;;;6.17;2.60;;;17.40;99.90;;;;;;5071321;28;20714;-66
2023/08/10 07:51:50;;;;;;;5.60;3.00;;;17.50;99.90;;;;;;5052893;28;20224;-66
2023/08/10 07:54:15;;;;;;;4.13;3.57;;;17.50;99.90;;;;;;5070930;28;20939;-66
2023/08/10 07:56:42;;;;;;;2.73;2.53;;;17.30;99.90;;;;;;5070957;28;20184;-66
2023/08/10 07:59:12;;;;;;;4.87;2.50;;;17.50;99.90;;;;;;5070750;28;20191;-66
2023/08/10 08:01:38;;;;;;;3.53;2.40;;;17.50;99.90;;;;;;5052423;28;20817;-66
2023/08/10 08:04:04;;;;;;;4.23;2.40;;;17.60;99.90;;;;;;5070738;28;20612;-66
2023/08/10 08:06:30;;;;;;;3.93;2.63;;;17.70;99.90;;;;;;5070816;28;20443;-66
2023/08/10 08:08:55;;;;;;;3.87;3.03;;;17.80;99.90;;;;;;5070808;28;20887;-65
2023/08/10 08:11:21;;;;;;;3.03;2.73;;;17.90;99.90;;;;;;5070574;28;20216;-65
2023/08/10 08:13:47;;;;;;;4.20;2.50;;;18.00;99.90;;;;;;5052304;28;20510;-66
2023/08/10 08:16:12;;;;;;;3.13;2.30;;;18.20;99.90;;;;;;5070414;28;20194;-65
2023/08/10 08:18:42;;;;;;;4.00;2.50;;;18.30;99.90;;;;;;5070498;28;20264;-65
2023/08/10 08:21:10;;;;;;;6.63;2.90;;;18.50;99.90;;;;;;5070583;28;20197;-65
2023/08/10 08:23:35;;;;;;;4.50;2.97;;;18.60;99.90;;;;;;5070420;28;20427;-65
2023/08/10 08:26:01;;;;;;;6.10;2.77;;;18.70;99.90;;;;;;5070453;28;20483;-66
2023/08/10 08:28:27;;;;;;;3.80;2.40;;;18.80;99.90;;;;;;5070364;28;20185;-65
2023/08/10 08:30:53;;;;;;;2.77;2.50;;;18.90;99.90;;;;;;5070528;28;20485;-65
2023/08/10 08:33:19;;;;;;;4.43;2.40;;;19.00;99.90;;;;;;5070756;28;20179;-65
2023/08/10 08:35:46;;;;;;;3.33;3.03;;;19.20;99.90;;;;;;5070651;28;20232;-66
2023/08/10 08:38:15;;;;;;;5.03;2.70;;;19.40;99.90;;;;;;5070603;28;20954;-66
2023/08/10 08:40:44;;;;;;;9.60;2.90;;;19.40;99.90;;;;;;5070429;28;20936;-65
2023/08/10 08:43:11;;;;;;;4.67;2.73;;;19.50;99.90;;;;;;5070583;28;20418;-65
2023/08/10 08:45:38;;;;;;;2.50;2.30;;;19.60;99.90;;;;;;5069961;28;20499;-65
2023/08/10 08:48:07;;;;;;;2.63;2.43;;;19.70;99.90;;;;;;5070780;28;20428;-66
2023/08/10 08:50:35;;;;;;;2.30;2.20;;;19.70;99.90;;;;;;5070387;28;20492;-65
2023/08/10 08:53:04;;;;;;;5.00;2.17;;;19.70;99.90;;;;;;5070364;28;20444;-65
2023/08/10 08:55:30;;;;;;;2.60;2.17;;;19.90;99.90;;;;;;5070343;28;20941;-66
2023/08/10 08:57:56;;;;;;;2.20;2.00;;;20.00;99.90;;;;;;5070118;28;20414;-66
2023/08/10 09:00:21;;;;;;;5.43;2.60;;;20.20;99.90;;;;;;5070060;28;20847;-66
2023/08/10 09:02:47;;;;;;;3.83;3.20;;;20.30;99.90;;;;;;5069863;28;20203;-65
2023/08/10 09:05:12;;;;;;;6.87;2.77;;;20.50;99.90;;;;;;5069864;28;20187;-66
2023/08/10 09:07:38;;;;;;;2.73;2.53;;;20.60;99.90;;;;;;5069654;28;20213;-66
2023/08/10 09:10:04;;;;;;;3.00;2.67;;;20.70;99.90;;;;;;5069412;28;20673;-66
2023/08/10 09:12:31;;;;;;;3.60;3.30;;;20.80;99.90;;;;;;5069134;28;20256;-66
2023/08/10 09:15:05;;;;;;;7.97;2.90;;;20.90;99.90;;;;;;5069352;28;20981;-66
2023/08/10 09:17:32;;;;;;;7.00;3.60;;;21.10;99.90;;;;;;5050997;28;20429;-66
2023/08/10 09:19:59;;;;;;;4.33;2.33;;;21.00;99.90;;;;;;5069144;28;20409;-66
2023/08/10 09:22:32;;;;;;;4.80;2.83;;;21.00;99.90;;;;;;5069060;28;20448;-66
2023/08/10 09:24:58;;;;;;;4.27;2.63;;;21.40;99.90;;;;;;5069151;28;20509;-66
2023/08/10 09:27:27;;;;;;;4.10;3.10;;;21.70;99.90;;;;;;5068967;28;20894;-66
2023/08/10 09:29:57;;;;;;;2.90;2.50;;;22.00;99.90;;;;;;5068990;28;20195;-67
2023/08/10 09:32:23;;;;;;;4.53;2.70;;;22.30;99.90;;;;;;5068891;28;20461;-66
2023/08/10 09:34:48;;;;;;;2.60;2.40;;;22.60;99.90;;;;;;5068980;28;20444;-66
2023/08/10 09:37:14;;;;;;;3.73;2.80;;;23.00;99.90;;;;;;5068813;28;20568;-66
2023/08/10 09:39:40;;;;;;;4.77;2.50;;;23.30;99.90;;;;;;5068607;28;20191;-66
2023/08/10 09:42:06;;;;;;;2.93;2.13;;;23.60;99.90;;;;;;5068560;28;20208;-66
2023/08/10 09:44:48;;;;;;;3.17;2.80;;;24.00;99.90;;;;;;5068818;28;20450;-66
2023/08/10 09:47:15;;;;;;;3.40;3.00;;;24.20;99.90;;;;;;5068857;28;20211;-66
2023/08/10 09:50:04;;;;;;;2.47;2.27;;;24.30;99.90;;;;;;5068675;28;20412;-65
2023/08/10 09:52:30;;;;;;;2.87;2.40;;;24.50;99.90;;;;;;5068606;28;21027;-67
2023/08/10 09:54:57;;;;;;;4.30;2.40;;;24.90;99.90;;;;;;5068623;28;20415;-65
2023/08/10 09:57:24;;;;;;;2.50;2.30;;;25.10;99.90;;;;;;5068624;28;20415;-65
2023/08/10 09:59:54;;;;;;;3.43;2.63;;;25.40;99.90;;;;;;5068828;28;20429;-67
2023/08/10 10:02:20;;;;;;;4.30;3.53;;;25.60;99.90;;;;;;5068727;28;20497;-66
2023/08/10 10:04:47;;;;;;;4.57;2.53;;;25.70;99.90;;;;;;5068418;28;20429;-66
2023/08/10 10:07:14;;;;;;;3.00;2.80;;;25.50;99.90;;;;;;5068591;28;20423;-65
2023/08/10 10:09:43;;;;;;;3.53;2.23;;;25.50;99.90;;;;;;5068752;28;20428;-66
2023/08/10 10:12:13;;;;;;;7.50;2.57;;;25.80;99.90;;;;;;5068328;28;20472;-66
2023/08/10 10:14:44;;;;;;;5.13;2.60;;;26.20;99.90;;;;;;5068424;28;20425;-67
2023/08/10 10:17:12;;;;;;;2.33;2.13;;;26.20;99.90;;;;;;5068603;28;20424;-65
2023/08/10 10:19:41;;;;;;;3.40;2.20;;;26.60;99.90;;;;;;5068384;28;20441;-66
2023/08/10 10:22:08;;;;;;;2.77;2.40;;;26.60;99.90;;;;;;5068222;28;21024;-67
2023/08/10 10:24:34;;;;;;;1.90;1.80;;;25.90;99.90;;;;;;5068482;28;20452;-67
2023/08/10 10:27:11;;;;;;;2.53;2.33;;;25.70;99.90;;;;;;5068441;28;20961;-66
2023/08/10 10:29:41;;;;;;;2.70;2.50;;;26.10;99.90;;;;;;5068193;28;20452;-66
2023/08/10 10:32:10;;;;;;;2.53;2.33;;;26.40;99.90;;;;;;5069191;28;20504;-64
2023/08/10 10:34:37;;;;;;;2.93;2.07;;;26.50;99.90;;;;;;5068939;28;20951;-66
2023/08/10 10:37:15;;;;;;;3.23;2.43;;;26.60;99.90;;;;;;5068328;28;20435;-66
2023/08/10 10:39:44;;;;;;;2.90;2.30;;;26.70;99.90;;;;;;5068182;28;20425;-67
2023/08/10 10:42:15;;;;;;;2.40;2.20;;;26.80;99.90;;;;;;5067961;28;20440;-66
2023/08/10 10:45:04;;;;;;;2.53;2.33;;;26.70;99.90;;;;;;5067998;28;20417;-66
2023/08/10 10:47:40;;;;;;;3.00;2.20;;;26.80;99.90;;;;;;5068200;28;20492;-67
2023/08/10 10:50:19;;;;;;;2.43;2.23;;;27.00;99.90;;;;;;5068070;28;20417;-67
2023/08/10 10:52:54;;;;;;;2.60;2.40;;;27.20;99.90;;;;;;5067954;28;20476;-66
2023/08/10 10:55:20;;;;;;;1.97;1.87;;;27.50;99.90;;;;;;5049895;28;20847;-66
2023/08/10 10:57:49;;;;;;;3.13;1.80;;;27.40;99.90;;;;;;5068065;28;20409;-67
2023/08/10 11:00:16;;;;;;;4.00;1.97;;;27.50;99.90;;;;;;5068084;28;20448;-67
2023/08/10 11:02:42;;;;;;;5.20;2.27;;;27.70;99.90;;;;;;5067950;28;20468;-67
2023/08/10 11:05:12;;;;;;;2.47;2.27;;;27.70;99.90;;;;;;5068034;28;20420;-66
2023/08/10 11:07:47;;;;;;;3.60;2.40;;;27.90;99.90;;;;;;5067916;28;20424;-66
2023/08/10 11:10:14;;;;;;;2.30;2.10;;;27.90;99.90;;;;;;5071764;28;20408;-66
2023/08/10 11:12:41;;;;;;;4.17;2.17;;;27.80;99.90;;;;;;5071515;28;20495;-66
2023/08/10 11:15:09;;;;;;;2.13;1.90;;;27.90;99.90;;;;;;5071723;28;20421;-66
2023/08/10 11:17:43;;;;;;;2.70;1.70;;;28.10;99.90;;;;;;5071478;28;20417;-67
2023/08/10 11:20:11;;;;;;;1.73;1.50;;;28.00;99.90;;;;;;5071423;28;20412;-66
2023/08/10 11:22:40;;;;;;;2.60;2.40;;;28.10;99.90;;;;;;5071358;28;21044;-66
2023/08/10 11:25:18;;;;;;;3.83;2.47;;;28.20;99.90;;;;;;5071536;28;20449;-66
2023/08/10 11:27:46;;;;;;;2.10;1.63;;;28.40;99.90;;;;;;5071443;28;20481;-66
2023/08/10 11:30:17;;;;;;;3.50;2.27;;;28.30;99.90;;;;;;5071265;28;20440;-66
2023/08/10 11:32:45;;;;;;;5.93;1.80;;;28.20;99.90;;;;;;5071082;28;20457;-66
2023/08/10 11:35:12;;;;;;;2.40;2.20;;;28.20;99.90;;;;;;5071331;28;20421;-66
2023/08/10 11:37:39;;;;;;;3.37;2.40;;;28.10;99.90;;;;;;5071113;28;20833;-66
2023/08/10 11:40:16;;;;;;;2.60;2.30;;;28.20;99.90;;;;;;5052944;28;20429;-66
2023/08/10 11:42:47;;;;;;;2.73;2.40;;;28.10;99.90;;;;;;5070863;28;20513;-66
2023/08/10 11:45:23;;;;;;;2.40;2.20;;;27.90;99.90;;;;;;5071016;28;20478;-66
2023/08/10 11:47:52;;;;;;;2.37;2.20;;;28.00;99.90;;;;;;5070847;28;20427;-67
2023/08/10 11:50:19;;;;;;;2.37;2.17;;;28.20;99.90;;;;;;5070930;28;21261;-66
2023/08/10 11:52:46;;;;;;;1.97;1.87;;;28.20;99.90;;;;;;5070693;28;20465;-66
2023/08/10 11:55:14;;;;;;;1.90;1.70;;;28.30;99.90;;;;;;5070863;28;20516;-65
2023/08/10 11:57:53;;;;;;;3.40;2.00;;;28.40;99.90;;;;;;5070969;28;20940;-67
2023/08/10 12:00:22;;;;;;;2.33;2.13;;;28.50;99.90;;;;;;5053063;28;20409;-66
2023/08/10 12:03:14;;;;;;;1.83;1.73;;;28.60;99.90;;;;;;5070573;28;20502;-67
2023/08/10 12:05:44;;;;;;;2.23;1.87;;;28.60;99.90;;;;;;5052599;28;20417;-67
2023/08/10 12:08:13;;;;;;;2.17;1.97;;;28.60;99.90;;;;;;5070551;28;20432;-67
2023/08/10 12:10:41;;;;;;;2.00;1.90;;;28.60;99.90;;;;;;5052500;28;20452;-66
2023/08/10 12:13:10;;;;;;;1.90;1.80;;;28.60;99.90;;;;;;5070477;28;20466;-66
2023/08/10 12:15:37;;;;;;;3.60;2.10;;;28.70;99.90;;;;;;5070522;28;20497;-66
2023/08/10 12:18:04;;;;;;;1.60;1.50;;;28.60;99.90;;;;;;5052133;28;20796;-65
2023/08/10 12:20:30;;;;;;;4.60;2.00;;;28.70;99.30;;;;;;5069176;28;20455;-65
2023/08/10 12:22:55;;;;;;;1.77;1.63;;;28.60;99.40;;;;;;5070265;28;20460;-65
2023/08/10 12:25:21;;;;;;;3.10;1.60;;;28.60;99.90;;;;;;5070329;28;20770;-66
2023/08/10 12:27:47;;;;;;;1.87;1.77;;;28.50;99.90;;;;;;5070350;28;20183;-66
2023/08/10 12:30:14;;;;;;;2.00;1.77;;;28.50;99.90;;;;;;5070118;28;20860;-66
2023/08/10 12:32:39;;;;;;;1.90;1.77;;;28.60;99.90;;;;;;5070102;28;20211;-65
2023/08/10 12:35:05;;;;;;;2.40;1.83;;;28.40;99.90;;;;;;5070120;28;21084;-65
2023/08/10 12:37:31;;;;;;;4.20;2.23;;;28.40;99.90;;;;;;5070007;28;20190;-65
2023/08/10 12:39:56;;;;;;;2.57;2.37;;;28.60;99.90;;;;;;5070251;28;20565;-66
2023/08/10 12:42:24;;;;;;;1.90;1.80;;;28.60;98.50;;;;;;5070149;28;20203;-65
2023/08/10 12:44:51;;;;;;;2.30;2.07;;;28.60;99.20;;;;;;5052711;28;20330;-66
2023/08/10 12:47:17;;;;;;;6.93;1.90;;;28.60;99.50;;;;;;5070514;28;20512;-66
2023/08/10 12:49:43;;;;;;;2.10;1.90;;;28.70;99.80;;;;;;5070669;28;21541;-66